sensor_id;sensor_type;location;lat;lon;timestamp;P1;durP1;ratioP1;P2;durP2;ratioP2
84923;SDS011;75286;52.218;5.180;2024-03-08T00:00:05;30.75;;;18.73;;
84923;SDS011;75286;52.218;5.180;2024-03-08T00:02:36;32.30;;;19.65;;
84923;SDS011;75286;52.218;5.180;2024-03-08T00:05:03;32.95;;;19.60;;
84923;SDS011;75286;52.218;5.180;2024-03-08T00:07:29;29.75;;;18.05;;
84923;SDS011;75286;52.218;5.180;2024-03-08T00:09:55;35.70;;;18.10;;
84923;SDS011;75286;52.218;5.180;2024-03-08T00:12:20;34.35;;;18.70;;
84923;SDS011;75286;52.218;5.180;2024-03-08T00:14:46;32.72;;;19.15;;
84923;SDS011;75286;52.218;5.180;2024-03-08T00:17:11;35.17;;;19.45;;
84923;SDS011;75286;52.218;5.180;2024-03-08T00:19:36;31.67;;;19.48;;
84923;SDS011;75286;52.218;5.180;2024-03-08T00:22:02;33.65;;;18.67;;
84923;SDS011;75286;52.218;5.180;2024-03-08T00:24:27;28.90;;;19.60;;
84923;SDS011;75286;52.218;5.180;2024-03-08T00:26:54;33.40;;;17.88;;
84923;SDS011;75286;52.218;5.180;2024-03-08T00:29:20;32.80;;;18.65;;
84923;SDS011;75286;52.218;5.180;2024-03-08T00:31:45;36.13;;;20.73;;
84923;SDS011;75286;52.218;5.180;2024-03-08T00:34:10;39.92;;;19.15;;
84923;SDS011;75286;52.218;5.180;2024-03-08T00:36:37;34.90;;;19.13;;
84923;SDS011;75286;52.218;5.180;2024-03-08T00:39:02;33.78;;;19.20;;
84923;SDS011;75286;52.218;5.180;2024-03-08T00:41:33;36.33;;;19.70;;
84923;SDS011;75286;52.218;5.180;2024-03-08T00:43:58;31.55;;;18.35;;
84923;SDS011;75286;52.218;5.180;2024-03-08T00:46:24;31.23;;;19.70;;
84923;SDS011;75286;52.218;5.180;2024-03-08T00:48:49;33.75;;;19.45;;
84923;SDS011;75286;52.218;5.180;2024-03-08T00:51:15;32.78;;;18.63;;
84923;SDS011;75286;52.218;5.180;2024-03-08T00:53:41;32.65;;;18.88;;
84923;SDS011;75286;52.218;5.180;2024-03-08T00:56:07;32.63;;;18.60;;
84923;SDS011;75286;52.218;5.180;2024-03-08T00:58:36;34.65;;;19.25;;
84923;SDS011;75286;52.218;5.180;2024-03-08T01:01:02;33.28;;;19.15;;
84923;SDS011;75286;52.218;5.180;2024-03-08T01:03:33;30.30;;;17.95;;
84923;SDS011;75286;52.218;5.180;2024-03-08T01:05:59;32.53;;;19.98;;
84923;SDS011;75286;52.218;5.180;2024-03-08T01:08:26;27.30;;;16.92;;
84923;SDS011;75286;52.218;5.180;2024-03-08T01:10:52;30.25;;;18.23;;
84923;SDS011;75286;52.218;5.180;2024-03-08T01:13:18;29.42;;;18.80;;
84923;SDS011;75286;52.218;5.180;2024-03-08T01:15:44;32.17;;;19.33;;
84923;SDS011;75286;52.218;5.180;2024-03-08T01:18:09;33.30;;;18.73;;
84923;SDS011;75286;52.218;5.180;2024-03-08T01:20:35;31.90;;;18.75;;
84923;SDS011;75286;52.218;5.180;2024-03-08T01:23:01;31.42;;;18.52;;
84923;SDS011;75286;52.218;5.180;2024-03-08T01:25:26;35.95;;;19.75;;
84923;SDS011;75286;52.218;5.180;2024-03-08T01:27:52;30.65;;;19.33;;
84923;SDS011;75286;52.218;5.180;2024-03-08T01:30:19;33.25;;;21.08;;
84923;SDS011;75286;52.218;5.180;2024-03-08T01:32:44;33.28;;;18.88;;
84923;SDS011;75286;52.218;5.180;2024-03-08T01:35:10;29.92;;;17.63;;
84923;SDS011;75286;52.218;5.180;2024-03-08T01:37:35;29.20;;;18.17;;
84923;SDS011;75286;52.218;5.180;2024-03-08T01:40:01;31.58;;;17.45;;
84923;SDS011;75286;52.218;5.180;2024-03-08T01:42:30;32.05;;;18.05;;
84923;SDS011;75286;52.218;5.180;2024-03-08T01:44:55;33.45;;;20.00;;
84923;SDS011;75286;52.218;5.180;2024-03-08T01:47:21;33.20;;;18.77;;
84923;SDS011;75286;52.218;5.180;2024-03-08T01:49:50;27.38;;;17.52;;
84923;SDS011;75286;52.218;5.180;2024-03-08T01:52:16;31.25;;;18.75;;
84923;SDS011;75286;52.218;5.180;2024-03-08T01:54:45;29.00;;;17.80;;
84923;SDS011;75286;52.218;5.180;2024-03-08T01:57:11;30.38;;;18.58;;
84923;SDS011;75286;52.218;5.180;2024-03-08T01:59:37;30.27;;;18.33;;
84923;SDS011;75286;52.218;5.180;2024-03-08T02:02:03;33.85;;;19.05;;
84923;SDS011;75286;52.218;5.180;2024-03-08T02:04:31;33.10;;;18.85;;
84923;SDS011;75286;52.218;5.180;2024-03-08T02:06:56;32.10;;;19.33;;
84923;SDS011;75286;52.218;5.180;2024-03-08T02:09:23;31.75;;;18.98;;
84923;SDS011;75286;52.218;5.180;2024-03-08T02:11:50;29.85;;;18.55;;
84923;SDS011;75286;52.218;5.180;2024-03-08T02:17:11;33.78;;;18.90;;
84923;SDS011;75286;52.218;5.180;2024-03-08T02:19:37;29.92;;;18.25;;
84923;SDS011;75286;52.218;5.180;2024-03-08T02:22:02;26.95;;;17.23;;
84923;SDS011;75286;52.218;5.180;2024-03-08T02:24:29;32.42;;;19.02;;
84923;SDS011;75286;52.218;5.180;2024-03-08T02:26:55;30.20;;;18.65;;
84923;SDS011;75286;52.218;5.180;2024-03-08T02:29:21;28.33;;;18.40;;
84923;SDS011;75286;52.218;5.180;2024-03-08T02:31:50;29.00;;;19.10;;
84923;SDS011;75286;52.218;5.180;2024-03-08T02:34:16;37.28;;;20.98;;
84923;SDS011;75286;52.218;5.180;2024-03-08T02:36:41;31.50;;;19.33;;
84923;SDS011;75286;52.218;5.180;2024-03-08T02:39:07;35.45;;;19.42;;
84923;SDS011;75286;52.218;5.180;2024-03-08T02:41:32;32.97;;;18.75;;
84923;SDS011;75286;52.218;5.180;2024-03-08T02:43:58;30.90;;;19.38;;
84923;SDS011;75286;52.218;5.180;2024-03-08T02:46:26;30.13;;;18.55;;
84923;SDS011;75286;52.218;5.180;2024-03-08T02:48:51;34.80;;;19.92;;
84923;SDS011;75286;52.218;5.180;2024-03-08T02:51:17;33.40;;;20.63;;
84923;SDS011;75286;52.218;5.180;2024-03-08T02:53:42;28.40;;;18.20;;
84923;SDS011;75286;52.218;5.180;2024-03-08T02:56:08;33.40;;;20.17;;
84923;SDS011;75286;52.218;5.180;2024-03-08T02:58:37;36.08;;;20.13;;
84923;SDS011;75286;52.218;5.180;2024-03-08T03:01:03;29.00;;;18.50;;
84923;SDS011;75286;52.218;5.180;2024-03-08T03:03:28;32.65;;;18.83;;
84923;SDS011;75286;52.218;5.180;2024-03-08T03:05:54;31.25;;;18.85;;
84923;SDS011;75286;52.218;5.180;2024-03-08T03:08:20;31.23;;;20.00;;
84923;SDS011;75286;52.218;5.180;2024-03-08T03:10:46;31.17;;;18.83;;
84923;SDS011;75286;52.218;5.180;2024-03-08T03:13:11;31.48;;;19.38;;
84923;SDS011;75286;52.218;5.180;2024-03-08T03:15:37;29.02;;;18.45;;
84923;SDS011;75286;52.218;5.180;2024-03-08T03:18:02;36.85;;;21.65;;
84923;SDS011;75286;52.218;5.180;2024-03-08T03:20:28;34.03;;;19.63;;
84923;SDS011;75286;52.218;5.180;2024-03-08T03:23:14;32.72;;;20.55;;
84923;SDS011;75286;52.218;5.180;2024-03-08T03:25:40;32.20;;;20.17;;
84923;SDS011;75286;52.218;5.180;2024-03-08T03:28:06;33.65;;;19.88;;
84923;SDS011;75286;52.218;5.180;2024-03-08T03:30:33;34.15;;;19.75;;
84923;SDS011;75286;52.218;5.180;2024-03-08T03:33:01;34.70;;;19.63;;
84923;SDS011;75286;52.218;5.180;2024-03-08T03:35:31;37.03;;;20.35;;
84923;SDS011;75286;52.218;5.180;2024-03-08T03:37:57;33.70;;;19.05;;
84923;SDS011;75286;52.218;5.180;2024-03-08T03:40:34;34.10;;;20.05;;
84923;SDS011;75286;52.218;5.180;2024-03-08T03:43:00;33.20;;;20.70;;
84923;SDS011;75286;52.218;5.180;2024-03-08T03:45:27;33.67;;;19.70;;
84923;SDS011;75286;52.218;5.180;2024-03-08T03:47:53;32.45;;;19.70;;
84923;SDS011;75286;52.218;5.180;2024-03-08T03:50:19;32.45;;;19.63;;
84923;SDS011;75286;52.218;5.180;2024-03-08T03:52:45;33.20;;;20.33;;
84923;SDS011;75286;52.218;5.180;2024-03-08T03:55:11;38.05;;;20.83;;
84923;SDS011;75286;52.218;5.180;2024-03-08T03:57:38;31.05;;;21.00;;
84923;SDS011;75286;52.218;5.180;2024-03-08T04:00:04;33.40;;;20.40;;
84923;SDS011;75286;52.218;5.180;2024-03-08T04:02:37;32.75;;;18.98;;
84923;SDS011;75286;52.218;5.180;2024-03-08T04:05:04;34.60;;;21.65;;
84923;SDS011;75286;52.218;5.180;2024-03-08T04:07:30;32.92;;;20.50;;
84923;SDS011;75286;52.218;5.180;2024-03-08T04:09:56;35.42;;;20.42;;
84923;SDS011;75286;52.218;5.180;2024-03-08T04:12:21;36.70;;;21.83;;
84923;SDS011;75286;52.218;5.180;2024-03-08T04:14:48;33.88;;;19.23;;
84923;SDS011;75286;52.218;5.180;2024-03-08T04:17:13;33.90;;;19.20;;
84923;SDS011;75286;52.218;5.180;2024-03-08T04:19:38;32.53;;;20.70;;
84923;SDS011;75286;52.218;5.180;2024-03-08T04:22:05;31.83;;;19.60;;
84923;SDS011;75286;52.218;5.180;2024-03-08T04:24:32;33.35;;;21.00;;
84923;SDS011;75286;52.218;5.180;2024-03-08T04:26:58;33.70;;;20.27;;
84923;SDS011;75286;52.218;5.180;2024-03-08T04:29:24;33.85;;;20.98;;
84923;SDS011;75286;52.218;5.180;2024-03-08T04:31:49;32.92;;;20.30;;
84923;SDS011;75286;52.218;5.180;2024-03-08T04:34:19;38.60;;;21.67;;
84923;SDS011;75286;52.218;5.180;2024-03-08T04:36:50;36.03;;;21.92;;
84923;SDS011;75286;52.218;5.180;2024-03-08T04:39:15;33.83;;;20.25;;
84923;SDS011;75286;52.218;5.180;2024-03-08T04:41:41;35.92;;;21.25;;
84923;SDS011;75286;52.218;5.180;2024-03-08T04:44:08;35.55;;;21.73;;
84923;SDS011;75286;52.218;5.180;2024-03-08T04:46:34;34.88;;;21.65;;
84923;SDS011;75286;52.218;5.180;2024-03-08T04:49:00;35.78;;;21.90;;
84923;SDS011;75286;52.218;5.180;2024-03-08T04:51:26;33.28;;;19.33;;
84923;SDS011;75286;52.218;5.180;2024-03-08T04:53:54;31.88;;;19.83;;
84923;SDS011;75286;52.218;5.180;2024-03-08T04:56:19;32.95;;;21.08;;
84923;SDS011;75286;52.218;5.180;2024-03-08T04:58:45;35.08;;;21.45;;
84923;SDS011;75286;52.218;5.180;2024-03-08T05:01:14;33.92;;;21.13;;
84923;SDS011;75286;52.218;5.180;2024-03-08T05:03:40;34.30;;;22.10;;
84923;SDS011;75286;52.218;5.180;2024-03-08T05:06:05;33.38;;;22.35;;
84923;SDS011;75286;52.218;5.180;2024-03-08T05:08:34;34.63;;;20.70;;
84923;SDS011;75286;52.218;5.180;2024-03-08T05:10:59;32.40;;;21.15;;
84923;SDS011;75286;52.218;5.180;2024-03-08T05:13:28;34.45;;;21.60;;
84923;SDS011;75286;52.218;5.180;2024-03-08T05:15:55;34.83;;;20.80;;
84923;SDS011;75286;52.218;5.180;2024-03-08T05:18:23;31.60;;;20.83;;
84923;SDS011;75286;52.218;5.180;2024-03-08T05:20:48;32.08;;;20.90;;
84923;SDS011;75286;52.218;5.180;2024-03-08T05:23:14;31.35;;;20.67;;
84923;SDS011;75286;52.218;5.180;2024-03-08T05:25:40;32.83;;;20.98;;
84923;SDS011;75286;52.218;5.180;2024-03-08T05:28:06;36.13;;;21.63;;
84923;SDS011;75286;52.218;5.180;2024-03-08T05:30:32;33.70;;;21.58;;
84923;SDS011;75286;52.218;5.180;2024-03-08T05:32:57;33.20;;;21.45;;
84923;SDS011;75286;52.218;5.180;2024-03-08T05:35:22;34.90;;;21.58;;
84923;SDS011;75286;52.218;5.180;2024-03-08T05:37:49;32.35;;;20.98;;
84923;SDS011;75286;52.218;5.180;2024-03-08T05:40:15;33.80;;;19.83;;
84923;SDS011;75286;52.218;5.180;2024-03-08T05:42:40;36.50;;;22.58;;
84923;SDS011;75286;52.218;5.180;2024-03-08T05:45:05;31.35;;;21.77;;
84923;SDS011;75286;52.218;5.180;2024-03-08T05:47:36;31.95;;;22.00;;
84923;SDS011;75286;52.218;5.180;2024-03-08T05:50:01;35.67;;;22.67;;
84923;SDS011;75286;52.218;5.180;2024-03-08T05:52:27;34.00;;;21.95;;
84923;SDS011;75286;52.218;5.180;2024-03-08T05:54:52;34.60;;;21.77;;
84923;SDS011;75286;52.218;5.180;2024-03-08T05:57:18;31.73;;;21.27;;
84923;SDS011;75286;52.218;5.180;2024-03-08T05:59:44;39.35;;;22.35;;
84923;SDS011;75286;52.218;5.180;2024-03-08T06:02:09;34.95;;;21.35;;
84923;SDS011;75286;52.218;5.180;2024-03-08T06:04:34;37.60;;;22.13;;
84923;SDS011;75286;52.218;5.180;2024-03-08T06:07:00;32.40;;;21.17;;
84923;SDS011;75286;52.218;5.180;2024-03-08T06:09:25;32.88;;;20.20;;
84923;SDS011;75286;52.218;5.180;2024-03-08T06:11:54;28.88;;;20.25;;
84923;SDS011;75286;52.218;5.180;2024-03-08T06:14:19;32.58;;;20.38;;
84923;SDS011;75286;52.218;5.180;2024-03-08T06:16:45;28.73;;;19.88;;
84923;SDS011;75286;52.218;5.180;2024-03-08T06:19:11;31.58;;;20.10;;
84923;SDS011;75286;52.218;5.180;2024-03-08T06:21:37;28.95;;;21.08;;
84923;SDS011;75286;52.218;5.180;2024-03-08T06:24:02;32.75;;;21.65;;
84923;SDS011;75286;52.218;5.180;2024-03-08T06:26:28;33.63;;;21.63;;
84923;SDS011;75286;52.218;5.180;2024-03-08T06:28:54;34.70;;;22.52;;
84923;SDS011;75286;52.218;5.180;2024-03-08T06:31:20;35.08;;;21.98;;
84923;SDS011;75286;52.218;5.180;2024-03-08T06:33:45;31.98;;;21.23;;
84923;SDS011;75286;52.218;5.180;2024-03-08T06:36:11;35.47;;;22.35;;
84923;SDS011;75286;52.218;5.180;2024-03-08T06:38:37;36.05;;;22.20;;
84923;SDS011;75286;52.218;5.180;2024-03-08T06:41:08;35.67;;;22.10;;
84923;SDS011;75286;52.218;5.180;2024-03-08T06:43:34;34.25;;;22.17;;
84923;SDS011;75286;52.218;5.180;2024-03-08T06:45:59;34.58;;;19.73;;
84923;SDS011;75286;52.218;5.180;2024-03-08T06:48:25;36.63;;;23.10;;
84923;SDS011;75286;52.218;5.180;2024-03-08T06:50:50;35.42;;;22.83;;
84923;SDS011;75286;52.218;5.180;2024-03-08T06:53:15;31.40;;;20.75;;
84923;SDS011;75286;52.218;5.180;2024-03-08T06:55:44;34.22;;;20.50;;
84923;SDS011;75286;52.218;5.180;2024-03-08T06:58:10;30.48;;;21.58;;
84923;SDS011;75286;52.218;5.180;2024-03-08T07:00:36;31.40;;;21.38;;
84923;SDS011;75286;52.218;5.180;2024-03-08T07:03:01;34.28;;;22.25;;
84923;SDS011;75286;52.218;5.180;2024-03-08T07:05:37;32.63;;;21.30;;
84923;SDS011;75286;52.218;5.180;2024-03-08T07:08:03;29.40;;;19.77;;
84923;SDS011;75286;52.218;5.180;2024-03-08T07:10:28;35.17;;;23.17;;
84923;SDS011;75286;52.218;5.180;2024-03-08T07:12:54;37.15;;;23.42;;
84923;SDS011;75286;52.218;5.180;2024-03-08T07:15:19;33.63;;;21.83;;
84923;SDS011;75286;52.218;5.180;2024-03-08T07:17:47;30.60;;;19.35;;
84923;SDS011;75286;52.218;5.180;2024-03-08T07:20:13;34.22;;;21.63;;
84923;SDS011;75286;52.218;5.180;2024-03-08T07:22:40;34.78;;;22.48;;
84923;SDS011;75286;52.218;5.180;2024-03-08T07:25:06;33.50;;;22.50;;
84923;SDS011;75286;52.218;5.180;2024-03-08T07:27:50;31.83;;;20.08;;
84923;SDS011;75286;52.218;5.180;2024-03-08T07:30:20;35.25;;;22.73;;
84923;SDS011;75286;52.218;5.180;2024-03-08T07:33:05;29.55;;;20.67;;
84923;SDS011;75286;52.218;5.180;2024-03-08T07:35:37;36.40;;;21.30;;
84923;SDS011;75286;52.218;5.180;2024-03-08T07:38:06;33.92;;;22.73;;
84923;SDS011;75286;52.218;5.180;2024-03-08T07:40:39;35.33;;;22.38;;
84923;SDS011;75286;52.218;5.180;2024-03-08T07:43:07;31.50;;;21.70;;
84923;SDS011;75286;52.218;5.180;2024-03-08T07:45:33;32.13;;;21.73;;
84923;SDS011;75286;52.218;5.180;2024-03-08T07:47:58;31.45;;;20.65;;
84923;SDS011;75286;52.218;5.180;2024-03-08T07:50:23;34.03;;;22.02;;
84923;SDS011;75286;52.218;5.180;2024-03-08T07:52:49;34.95;;;21.67;;
84923;SDS011;75286;52.218;5.180;2024-03-08T07:55:14;33.42;;;21.25;;
84923;SDS011;75286;52.218;5.180;2024-03-08T07:57:40;33.95;;;22.50;;
84923;SDS011;75286;52.218;5.180;2024-03-08T08:00:05;34.78;;;22.30;;
84923;SDS011;75286;52.218;5.180;2024-03-08T08:02:35;35.05;;;22.77;;
84923;SDS011;75286;52.218;5.180;2024-03-08T08:05:01;32.60;;;20.90;;
84923;SDS011;75286;52.218;5.180;2024-03-08T08:07:27;30.02;;;20.17;;
84923;SDS011;75286;52.218;5.180;2024-03-08T08:09:53;35.10;;;21.55;;
84923;SDS011;75286;52.218;5.180;2024-03-08T08:12:18;31.85;;;21.80;;
84923;SDS011;75286;52.218;5.180;2024-03-08T08:14:43;31.67;;;22.13;;
84923;SDS011;75286;52.218;5.180;2024-03-08T08:17:09;29.15;;;20.13;;
84923;SDS011;75286;52.218;5.180;2024-03-08T08:19:34;32.40;;;20.90;;
84923;SDS011;75286;52.218;5.180;2024-03-08T08:22:04;32.40;;;21.35;;
84923;SDS011;75286;52.218;5.180;2024-03-08T08:24:29;32.88;;;20.88;;
84923;SDS011;75286;52.218;5.180;2024-03-08T08:26:55;32.88;;;21.42;;
84923;SDS011;75286;52.218;5.180;2024-03-08T08:29:20;34.63;;;21.20;;
84923;SDS011;75286;52.218;5.180;2024-03-08T08:31:47;36.15;;;23.65;;
84923;SDS011;75286;52.218;5.180;2024-03-08T08:34:12;33.63;;;22.20;;
84923;SDS011;75286;52.218;5.180;2024-03-08T08:36:38;31.98;;;22.08;;
84923;SDS011;75286;52.218;5.180;2024-03-08T08:39:04;32.85;;;21.30;;
84923;SDS011;75286;52.218;5.180;2024-03-08T08:41:31;32.53;;;22.25;;
84923;SDS011;75286;52.218;5.180;2024-03-08T08:43:57;31.73;;;20.15;;
84923;SDS011;75286;52.218;5.180;2024-03-08T08:46:22;31.67;;;21.77;;
84923;SDS011;75286;52.218;5.180;2024-03-08T08:48:47;32.55;;;21.40;;
84923;SDS011;75286;52.218;5.180;2024-03-08T08:51:13;29.80;;;19.98;;
84923;SDS011;75286;52.218;5.180;2024-03-08T08:53:42;30.20;;;20.85;;
84923;SDS011;75286;52.218;5.180;2024-03-08T08:56:11;33.33;;;20.90;;
84923;SDS011;75286;52.218;5.180;2024-03-08T08:58:44;29.75;;;19.70;;
84923;SDS011;75286;52.218;5.180;2024-03-08T09:01:10;33.05;;;21.85;;
84923;SDS011;75286;52.218;5.180;2024-03-08T09:03:38;35.80;;;21.73;;
84923;SDS011;75286;52.218;5.180;2024-03-08T09:06:06;32.95;;;21.15;;
84923;SDS011;75286;52.218;5.180;2024-03-08T09:08:35;33.33;;;22.02;;
84923;SDS011;75286;52.218;5.180;2024-03-08T09:11:01;31.73;;;21.50;;
84923;SDS011;75286;52.218;5.180;2024-03-08T09:13:27;29.95;;;20.60;;
84923;SDS011;75286;52.218;5.180;2024-03-08T09:15:53;28.75;;;19.67;;
84923;SDS011;75286;52.218;5.180;2024-03-08T09:18:19;30.40;;;20.27;;
84923;SDS011;75286;52.218;5.180;2024-03-08T09:20:45;31.70;;;21.77;;
84923;SDS011;75286;52.218;5.180;2024-03-08T09:23:10;29.17;;;20.42;;
84923;SDS011;75286;52.218;5.180;2024-03-08T09:25:36;27.48;;;18.15;;
84923;SDS011;75286;52.218;5.180;2024-03-08T09:28:01;32.92;;;21.30;;
84923;SDS011;75286;52.218;5.180;2024-03-08T09:30:26;29.80;;;20.30;;
84923;SDS011;75286;52.218;5.180;2024-03-08T09:32:52;29.75;;;20.25;;
84923;SDS011;75286;52.218;5.180;2024-03-08T09:35:17;27.30;;;17.98;;
84923;SDS011;75286;52.218;5.180;2024-03-08T09:37:43;29.52;;;18.52;;
84923;SDS011;75286;52.218;5.180;2024-03-08T09:40:08;30.60;;;20.08;;
84923;SDS011;75286;52.218;5.180;2024-03-08T09:42:40;30.13;;;20.35;;
84923;SDS011;75286;52.218;5.180;2024-03-08T09:45:09;32.75;;;21.55;;
84923;SDS011;75286;52.218;5.180;2024-03-08T09:47:36;29.65;;;20.38;;
84923;SDS011;75286;52.218;5.180;2024-03-08T09:50:05;30.52;;;19.20;;
84923;SDS011;75286;52.218;5.180;2024-03-08T09:52:34;28.85;;;19.65;;
84923;SDS011;75286;52.218;5.180;2024-03-08T09:55:02;30.48;;;19.73;;
84923;SDS011;75286;52.218;5.180;2024-03-08T09:57:35;29.55;;;20.88;;
84923;SDS011;75286;52.218;5.180;2024-03-08T10:00:02;29.20;;;19.98;;
84923;SDS011;75286;52.218;5.180;2024-03-08T10:02:33;29.75;;;19.65;;
84923;SDS011;75286;52.218;5.180;2024-03-08T10:05:00;29.17;;;20.05;;
84923;SDS011;75286;52.218;5.180;2024-03-08T10:07:28;29.13;;;18.95;;
84923;SDS011;75286;52.218;5.180;2024-03-08T10:09:54;26.73;;;19.02;;
84923;SDS011;75286;52.218;5.180;2024-03-08T10:12:20;24.65;;;17.17;;
84923;SDS011;75286;52.218;5.180;2024-03-08T10:14:45;25.35;;;18.40;;
84923;SDS011;75286;52.218;5.180;2024-03-08T10:17:11;27.25;;;18.20;;
84923;SDS011;75286;52.218;5.180;2024-03-08T10:19:37;30.83;;;19.23;;
84923;SDS011;75286;52.218;5.180;2024-03-08T10:22:04;28.23;;;18.25;;
84923;SDS011;75286;52.218;5.180;2024-03-08T10:24:29;26.15;;;18.58;;
84923;SDS011;75286;52.218;5.180;2024-03-08T10:26:59;26.77;;;17.65;;
84923;SDS011;75286;52.218;5.180;2024-03-08T10:29:26;29.70;;;19.15;;
84923;SDS011;75286;52.218;5.180;2024-03-08T10:31:51;27.98;;;18.60;;
84923;SDS011;75286;52.218;5.180;2024-03-08T10:34:16;27.15;;;18.48;;
84923;SDS011;75286;52.218;5.180;2024-03-08T10:36:42;26.27;;;18.80;;
84923;SDS011;75286;52.218;5.180;2024-03-08T10:39:15;27.67;;;17.88;;
84923;SDS011;75286;52.218;5.180;2024-03-08T10:41:51;26.10;;;18.75;;
84923;SDS011;75286;52.218;5.180;2024-03-08T10:49:31;24.08;;;17.05;;
84923;SDS011;75286;52.218;5.180;2024-03-08T10:52:02;23.80;;;15.75;;
84923;SDS011;75286;52.218;5.180;2024-03-08T10:54:29;22.98;;;17.13;;
84923;SDS011;75286;52.218;5.180;2024-03-08T10:56:56;28.40;;;18.27;;
84923;SDS011;75286;52.218;5.180;2024-03-08T10:59:22;29.65;;;18.30;;
84923;SDS011;75286;52.218;5.180;2024-03-08T11:01:49;25.55;;;18.05;;
84923;SDS011;75286;52.218;5.180;2024-03-08T11:04:16;26.58;;;17.65;;
84923;SDS011;75286;52.218;5.180;2024-03-08T11:06:45;22.48;;;16.00;;
84923;SDS011;75286;52.218;5.180;2024-03-08T11:09:31;24.65;;;17.40;;
84923;SDS011;75286;52.218;5.180;2024-03-08T11:14:46;23.23;;;16.27;;
84923;SDS011;75286;52.218;5.180;2024-03-08T11:17:16;24.83;;;16.38;;
84923;SDS011;75286;52.218;5.180;2024-03-08T11:19:47;25.70;;;17.98;;
84923;SDS011;75286;52.218;5.180;2024-03-08T11:22:20;22.90;;;15.73;;
84923;SDS011;75286;52.218;5.180;2024-03-08T11:24:48;22.13;;;15.32;;
84923;SDS011;75286;52.218;5.180;2024-03-08T11:27:14;20.90;;;15.55;;
84923;SDS011;75286;52.218;5.180;2024-03-08T11:29:43;25.27;;;16.77;;
84923;SDS011;75286;52.218;5.180;2024-03-08T11:32:12;23.90;;;15.80;;
84923;SDS011;75286;52.218;5.180;2024-03-08T11:34:46;21.90;;;16.40;;
84923;SDS011;75286;52.218;5.180;2024-03-08T11:37:15;21.40;;;16.00;;
84923;SDS011;75286;52.218;5.180;2024-03-08T11:39:49;22.83;;;14.85;;
84923;SDS011;75286;52.218;5.180;2024-03-08T11:42:16;22.65;;;15.18;;
84923;SDS011;75286;52.218;5.180;2024-03-08T11:44:43;22.77;;;15.02;;
84923;SDS011;75286;52.218;5.180;2024-03-08T11:47:12;22.38;;;15.23;;
84923;SDS011;75286;52.218;5.180;2024-03-08T11:49:39;24.35;;;15.50;;
84923;SDS011;75286;52.218;5.180;2024-03-08T11:52:12;22.45;;;15.90;;
84923;SDS011;75286;52.218;5.180;2024-03-08T11:54:38;25.20;;;17.02;;
84923;SDS011;75286;52.218;5.180;2024-03-08T11:57:04;22.33;;;14.95;;
84923;SDS011;75286;52.218;5.180;2024-03-08T11:59:30;23.95;;;16.00;;
84923;SDS011;75286;52.218;5.180;2024-03-08T12:02:08;22.75;;;15.95;;
84923;SDS011;75286;52.218;5.180;2024-03-08T12:04:36;24.67;;;15.52;;
84923;SDS011;75286;52.218;5.180;2024-03-08T12:07:02;20.25;;;13.55;;
84923;SDS011;75286;52.218;5.180;2024-03-08T12:09:33;19.58;;;14.15;;
84923;SDS011;75286;52.218;5.180;2024-03-08T12:12:01;30.25;;;14.27;;
84923;SDS011;75286;52.218;5.180;2024-03-08T12:14:29;18.50;;;13.73;;
84923;SDS011;75286;52.218;5.180;2024-03-08T12:16:55;17.90;;;13.07;;
84923;SDS011;75286;52.218;5.180;2024-03-08T12:19:22;19.33;;;12.85;;
84923;SDS011;75286;52.218;5.180;2024-03-08T12:21:47;21.40;;;14.65;;
84923;SDS011;75286;52.218;5.180;2024-03-08T12:24:16;19.42;;;13.48;;
84923;SDS011;75286;52.218;5.180;2024-03-08T12:26:47;22.80;;;13.98;;
84923;SDS011;75286;52.218;5.180;2024-03-08T12:31:53;20.20;;;13.77;;
84923;SDS011;75286;52.218;5.180;2024-03-08T12:34:20;21.23;;;13.05;;
84923;SDS011;75286;52.218;5.180;2024-03-08T12:36:49;19.38;;;12.70;;
84923;SDS011;75286;52.218;5.180;2024-03-08T12:39:18;19.77;;;13.48;;
84923;SDS011;75286;52.218;5.180;2024-03-08T12:41:52;19.30;;;12.45;;
84923;SDS011;75286;52.218;5.180;2024-03-08T12:44:19;19.08;;;12.48;;
84923;SDS011;75286;52.218;5.180;2024-03-08T12:46:47;17.60;;;12.90;;
84923;SDS011;75286;52.218;5.180;2024-03-08T12:49:13;19.98;;;12.75;;
84923;SDS011;75286;52.218;5.180;2024-03-08T12:51:42;17.55;;;12.05;;
84923;SDS011;75286;52.218;5.180;2024-03-08T12:54:10;18.90;;;12.35;;
84923;SDS011;75286;52.218;5.180;2024-03-08T12:56:36;19.88;;;13.55;;
84923;SDS011;75286;52.218;5.180;2024-03-08T12:59:03;19.40;;;12.73;;
84923;SDS011;75286;52.218;5.180;2024-03-08T13:01:29;17.88;;;12.38;;
84923;SDS011;75286;52.218;5.180;2024-03-08T13:03:57;18.20;;;12.05;;
84923;SDS011;75286;52.218;5.180;2024-03-08T13:06:28;18.10;;;11.90;;
84923;SDS011;75286;52.218;5.180;2024-03-08T13:08:56;17.77;;;12.48;;
84923;SDS011;75286;52.218;5.180;2024-03-08T13:11:25;19.48;;;12.13;;
84923;SDS011;75286;52.218;5.180;2024-03-08T13:13:52;17.67;;;12.20;;
84923;SDS011;75286;52.218;5.180;2024-03-08T13:16:20;17.85;;;11.95;;
84923;SDS011;75286;52.218;5.180;2024-03-08T13:18:46;18.02;;;12.32;;
84923;SDS011;75286;52.218;5.180;2024-03-08T13:21:14;19.70;;;13.75;;
84923;SDS011;75286;52.218;5.180;2024-03-08T13:23:43;18.13;;;12.52;;
84923;SDS011;75286;52.218;5.180;2024-03-08T13:26:12;18.92;;;13.75;;
84923;SDS011;75286;52.218;5.180;2024-03-08T13:28:41;17.25;;;12.30;;
84923;SDS011;75286;52.218;5.180;2024-03-08T13:31:07;20.80;;;13.55;;
84923;SDS011;75286;52.218;5.180;2024-03-08T13:33:35;20.02;;;13.65;;
84923;SDS011;75286;52.218;5.180;2024-03-08T13:36:07;21.58;;;14.00;;
84923;SDS011;75286;52.218;5.180;2024-03-08T13:38:46;19.35;;;14.13;;
84923;SDS011;75286;52.218;5.180;2024-03-08T13:41:13;20.40;;;14.13;;
84923;SDS011;75286;52.218;5.180;2024-03-08T13:43:46;19.08;;;13.10;;
84923;SDS011;75286;52.218;5.180;2024-03-08T13:46:12;20.48;;;13.18;;
84923;SDS011;75286;52.218;5.180;2024-03-08T13:48:37;17.48;;;12.00;;
84923;SDS011;75286;52.218;5.180;2024-03-08T13:51:04;21.17;;;14.32;;
84923;SDS011;75286;52.218;5.180;2024-03-08T13:53:31;19.15;;;13.50;;
84923;SDS011;75286;52.218;5.180;2024-03-08T13:55:56;21.52;;;14.07;;
84923;SDS011;75286;52.218;5.180;2024-03-08T13:58:22;21.05;;;13.90;;
84923;SDS011;75286;52.218;5.180;2024-03-08T14:00:47;21.38;;;13.63;;
84923;SDS011;75286;52.218;5.180;2024-03-08T14:03:13;18.08;;;12.02;;
84923;SDS011;75286;52.218;5.180;2024-03-08T14:05:41;19.92;;;13.30;;
84923;SDS011;75286;52.218;5.180;2024-03-08T14:08:08;18.65;;;13.13;;
84923;SDS011;75286;52.218;5.180;2024-03-08T14:10:36;20.98;;;14.75;;
84923;SDS011;75286;52.218;5.180;2024-03-08T14:13:02;20.05;;;13.93;;
84923;SDS011;75286;52.218;5.180;2024-03-08T14:15:30;19.75;;;14.43;;
84923;SDS011;75286;52.218;5.180;2024-03-08T14:17:56;19.05;;;14.32;;
84923;SDS011;75286;52.218;5.180;2024-03-08T14:20:22;19.58;;;12.93;;
84923;SDS011;75286;52.218;5.180;2024-03-08T14:22:54;20.50;;;14.30;;
84923;SDS011;75286;52.218;5.180;2024-03-08T14:25:20;18.40;;;13.27;;
84923;SDS011;75286;52.218;5.180;2024-03-08T14:27:49;19.40;;;13.95;;
84923;SDS011;75286;52.218;5.180;2024-03-08T14:30:18;19.05;;;13.23;;
84923;SDS011;75286;52.218;5.180;2024-03-08T14:33:06;21.15;;;15.55;;